TimeEST,TemperatureF,Dew PointF,Humidity,Sea Level PressureIn,VisibilityMPH,Wind Direction,Wind SpeedMPH,Gust SpeedMPH,PrecipitationIn,Events,Conditions,WindDirDegrees,DateUTC
12:56 AM,19.9,18.0,92,29.86,3.0,Calm,Calm,-,N/A,,Overcast,0,2013-02-05 05:56:00
1:20 AM,19.4,17.6,93,29.77,2.5,Calm,Calm,-,N/A,,Overcast,0,2013-02-05 06:20:00
1:38 AM,19.4,17.6,93,29.77,3.0,Calm,Calm,-,N/A,,Overcast,0,2013-02-05 06:38:00
1:56 AM,19.9,18.0,92,29.85,4.0,Calm,Calm,-,N/A,,Overcast,0,2013-02-05 06:56:00
2:56 AM,19.9,18.0,92,29.87,4.0,Calm,Calm,-,N/A,,Overcast,0,2013-02-05 07:56:00
3:56 AM,19.9,18.0,92,29.86,5.0,Calm,Calm,-,N/A,,Overcast,0,2013-02-05 08:56:00
4:56 AM,21.0,18.0,88,29.86,6.0,Calm,Calm,-,N/A,,Overcast,0,2013-02-05 09:56:00
5:56 AM,19.9,18.0,92,29.88,5.0,Calm,Calm,-,N/A,,Overcast,0,2013-02-05 10:56:00
6:56 AM,19.9,18.0,92,29.88,6.0,Calm,Calm,-,N/A,,Overcast,0,2013-02-05 11:56:00
7:56 AM,19.9,18.0,92,29.90,4.0,Calm,Calm,-,N/A,,Overcast,0,2013-02-05 12:56:00
8:56 AM,21.0,18.0,88,29.89,4.0,Calm,Calm,-,N/A,,Overcast,0,2013-02-05 13:56:00
9:56 AM,21.9,18.0,85,29.89,4.0,SE,4.6,-,N/A,,Overcast,130,2013-02-05 14:56:00
10:56 AM,23.0,19.0,85,29.89,4.0,Calm,Calm,-,N/A,,Overcast,0,2013-02-05 15:56:00
11:56 AM,24.1,19.9,84,29.87,5.0,Calm,Calm,-,N/A,,Overcast,0,2013-02-05 16:56:00
12:56 PM,25.0,19.9,81,29.84,6.0,WSW,5.8,-,N/A,,Haze,250,2013-02-05 17:56:00
1:56 PM,25.0,21.0,85,29.83,4.0,WSW,6.9,-,N/A,,Overcast,240,2013-02-05 18:56:00
2:56 PM,25.0,21.9,88,29.82,5.0,WSW,4.6,-,N/A,,Overcast,250,2013-02-05 19:56:00
3:56 PM,26.1,21.9,84,29.82,4.0,WSW,4.6,-,N/A,,Overcast,240,2013-02-05 20:56:00
4:31 PM,26.6,21.2,80,29.76,1.8,West,6.9,-,N/A,,Overcast,260,2013-02-05 21:31:00
4:43 PM,24.8,23.0,93,29.77,0.5,West,8.1,-,0.00,Fog-Snow,Light Snow,260,2013-02-05 21:43:00
4:54 PM,24.8,23.0,93,29.77,0.5,WSW,8.1,-,0.00,Fog-Snow,Light Snow,250,2013-02-05 21:54:00
4:56 PM,25.0,23.0,92,29.84,0.5,WSW,8.1,-,0.00,Fog-Snow,Light Snow,250,2013-02-05 21:56:00
5:18 PM,24.8,23.0,93,29.77,1.2,WSW,8.1,-,0.01,Snow,Light Snow,250,2013-02-05 22:18:00
5:26 PM,24.8,23.0,93,29.77,1.2,WSW,5.8,-,0.01,,Overcast,240,2013-02-05 22:26:00
5:44 PM,24.8,23.0,93,29.77,1.2,West,5.8,-,0.01,,Overcast,260,2013-02-05 22:44:00
5:56 PM,25.0,23.0,92,29.84,2.0,WSW,6.9,-,0.01,,Overcast,250,2013-02-05 22:56:00
6:08 PM,24.8,23.0,93,29.77,4.0,WSW,8.1,-,N/A,,Overcast,250,2013-02-05 23:08:00
6:21 PM,24.8,23.0,93,29.78,4.0,West,6.9,-,N/A,,Overcast,260,2013-02-05 23:21:00
6:32 PM,24.8,23.0,93,29.78,4.0,West,8.1,-,N/A,,Overcast,260,2013-02-05 23:32:00
6:56 PM,25.0,21.9,88,29.86,6.0,West,8.1,-,N/A,,Overcast,260,2013-02-05 23:56:00
7:27 PM,24.8,21.2,86,29.80,7.0,West,11.5,-,N/A,,Overcast,260,2013-02-06 00:27:00
7:56 PM,24.1,19.0,81,29.88,8.0,West,12.7,-,N/A,,Overcast,260,2013-02-06 00:56:00
8:18 PM,23.0,17.6,80,29.82,8.0,West,10.4,-,N/A,,Scattered Clouds,270,2013-02-06 01:18:00
8:56 PM,21.9,17.1,82,29.90,8.0,WSW,10.4,-,N/A,,Mostly Cloudy,250,2013-02-06 01:56:00
9:56 PM,21.9,16.0,78,29.93,8.0,West,8.1,-,N/A,,Overcast,270,2013-02-06 02:56:00
10:56 PM,21.9,16.0,78,29.92,8.0,West,8.1,-,N/A,,Mostly Cloudy,260,2013-02-06 03:56:00
11:56 PM,21.0,17.1,85,29.91,5.0,WSW,6.9,-,N/A,,Overcast,250,2013-02-06 04:56:00